Time;durP1;ratioP1;P1;durP2;ratioP2;P2;SDS_P1;SDS_P2;PMS_P1;PMS_P2;Temp;Humidity;BMP_temperature;BMP_pressure;BME280_temperature;BME280_humidity;BME280_pressure;Samples;Min_cycle;Max_cycle;Signal;HPM_P1;HPM_P2
2022/09/02 00:02:04;;;;;;;1.15;0.85;;;;;;;;;;12593436;28;20045;-74
2022/09/02 00:08:06;;;;;;;0.98;0.98;;;;;;;;;;12575516;28;20047;-74
2022/09/02 00:14:09;;;;;;;0.90;0.90;;;;;;;;;;12593779;28;20040;-75
2022/09/02 00:20:11;;;;;;;0.98;0.85;;;;;;;;;;12575318;28;20047;-74
2022/09/02 00:26:13;;;;;;;1.10;1.00;;;;;;;;;;12592829;28;20294;-74
2022/09/02 00:32:15;;;;;;;;;;;;;;;;;;12583531;28;20056;-74
2022/09/02 00:38:16;;;;;;;1.40;1.20;;;;;;;;;;12584214;28;19912;-74
2022/09/02 00:44:19;;;;;;;1.08;1.00;;;;;;;;;;12567416;28;20048;-74
2022/09/02 00:50:23;;;;;;;1.10;1.10;;;;;;;;;;12583799;28;20044;-74
2022/09/02 00:56:27;;;;;;;0.90;0.90;;;;;;;;;;12601564;28;20405;-74
2022/09/02 01:02:30;;;;;;;1.15;1.05;;;;;;;;;;12583785;28;20049;-74
2022/09/02 01:08:33;;;;;;;1.25;1.05;;;;;;;;;;12566367;28;20477;-74
2022/09/02 01:14:35;;;;;;;1.10;1.00;;;;;;;;;;12601439;28;20032;-74
2022/09/02 01:20:37;;;;;;;1.13;1.02;;;;;;;;;;12600600;28;20067;-74
2022/09/02 01:26:40;;;;;;;1.00;1.00;;;;;;;;;;12600572;28;20037;-74
2022/09/02 01:32:42;;;;;;;1.17;1.08;;;;;;;;;;12600028;28;20053;-74
2022/09/02 01:38:43;;;;;;;1.50;0.90;;;;;;;;;;12599451;28;20036;-74
2022/09/02 01:44:45;;;;;;;1.48;0.98;;;;;;;;;;12579948;28;20423;-74
2022/09/02 01:50:53;;;;;;;0.90;0.90;;;;;;;;;;12581310;28;20044;-74
2022/09/02 01:56:55;;;;;;;1.48;1.38;;;;;;;;;;12582288;28;20047;-74
2022/09/02 02:02:58;;;;;;;1.48;1.17;;;;;;;;;;12580437;28;20040;-74
2022/09/02 02:09:00;;;;;;;;;;;;;;;;;;12564790;28;20226;-74
2022/09/02 02:15:04;;;;;;;1.17;0.93;;;;;;;;;;12580548;28;19908;-74
2022/09/02 02:21:07;;;;;;;2.35;1.20;;;;;;;;;;12580157;28;20036;-74
2022/09/02 02:27:09;;;;;;;2.08;0.95;;;;;;;;;;12597147;28;20474;-73
2022/09/02 02:33:11;;;;;;;1.15;1.00;;;;;;;;;;12580113;28;20055;-74
2022/09/02 02:39:13;;;;;;;0.82;0.82;;;;;;;;;;12562881;28;20041;-73
2022/09/02 02:45:15;;;;;;;0.95;0.95;;;;;;;;;;12562117;28;20028;-74
2022/09/02 02:51:16;;;;;;;;;;;;;;;;;;12596235;28;20040;-74
2022/09/02 02:57:19;;;;;;;;;;;;;;;;;;12578786;28;20298;-73
2022/09/02 03:03:21;;;;;;;1.30;1.20;;;;;;;;;;12577644;28;19923;-73
2022/09/02 03:09:27;;;;;;;1.13;1.02;;;;;;;;;;12561890;28;20037;-74
2022/09/02 03:15:29;;;;;;;0.88;0.88;;;;;;;;;;12595031;28;20063;-74
2022/09/02 03:21:31;;;;;;;1.42;1.10;;;;;;;;;;12577741;28;20478;-75
2022/09/02 03:27:33;;;;;;;1.10;1.00;;;;;;;;;;12576763;28;20063;-75
2022/09/02 03:33:35;;;;;;;1.10;0.90;;;;;;;;;;12577015;28;20517;-75
2022/09/02 03:39:39;;;;;;;1.10;1.00;;;;;;;;;;12576721;28;20044;-75
2022/09/02 03:45:42;;;;;;;1.35;0.77;;;;;;;;;;12559496;28;20501;-75
2022/09/02 03:51:46;;;;;;;1.10;1.00;;;;;;;;;;12576035;28;20047;-75
2022/09/02 03:57:48;;;;;;;1.05;0.93;;;;;;;;;;12576254;28;20032;-75
2022/09/02 04:03:50;;;;;;;1.30;1.20;;;;;;;;;;12577457;28;20071;-74
2022/09/02 04:09:54;;;;;;;0.82;0.82;;;;;;;;;;12586170;28;20036;-74
2022/09/02 04:15:57;;;;;;;1.30;1.10;;;;;;;;;;12603467;28;20039;-74
2022/09/02 04:21:59;;;;;;;0.95;0.88;;;;;;;;;;12585187;28;20063;-74
2022/09/02 04:28:02;;;;;;;1.20;1.10;;;;;;;;;;12584877;28;20375;-75
2022/09/02 04:34:05;;;;;;;;;;;;;;;;;;12585605;28;20032;-73
2022/09/02 04:40:07;;;;;;;1.67;1.00;;;;;;;;;;12588098;28;19928;-75
2022/09/02 04:46:11;;;;;;;1.00;0.90;;;;;;;;;;12583692;28;20024;-75
2022/09/02 04:52:16;;;;;;;0.90;0.90;;;;;;;;;;12583649;28;20040;-74
2022/09/02 04:58:19;;;;;;;1.27;0.82;;;;;;;;;;12583463;28;20039;-74
2022/09/02 05:04:23;;;;;;;1.08;0.85;;;;;;;;;;12583024;28;20045;-74
2022/09/02 05:10:27;;;;;;;1.73;0.90;;;;;;;;;;12584191;28;20043;-73
2022/09/02 05:16:31;;;;;;;0.77;0.77;;;;;;;;;;12566012;28;20043;-75
2022/09/02 05:22:34;;;;;;;1.00;1.00;;;;;;;;;;12565726;28;20037;-74
2022/09/02 05:28:39;;;;;;;0.93;0.88;;;;;;;;;;12565642;28;20059;-74
2022/09/02 05:34:41;;;;;;;1.17;1.08;;;;;;;;;;12581905;28;20028;-73
2022/09/02 05:40:43;;;;;;;1.20;1.10;;;;;;;;;;12582367;28;20048;-74
2022/09/02 05:46:47;;;;;;;1.17;1.10;;;;;;;;;;12582132;28;20497;-74
2022/09/02 05:52:50;;;;;;;1.20;1.02;;;;;;;;;;12580797;28;20041;-74
2022/09/02 05:58:55;;;;;;;0.80;0.80;;;;;;;;;;12580724;28;20036;-74
2022/09/02 06:04:57;;;;;;;1.08;0.88;;;;;;;;;;12563966;28;20409;-73
2022/09/02 06:11:02;;;;;;;1.02;0.90;;;;;;;;;;12550141;28;20036;-75
2022/09/02 06:17:05;;;;;;;0.90;0.90;;;;;;;;;;12530489;28;20037;-74
2022/09/02 06:23:22;;;;;;;1.77;1.17;;;;;;;;;;12546032;28;20049;-74
2022/09/02 06:29:27;;;;;;;1.17;1.08;;;;;;;;;;12575887;28;20051;-74
2022/09/02 06:35:30;;;;;;;1.27;1.17;;;;;;;;;;12553492;28;20402;-75
2022/09/02 06:41:33;;;;;;;0.68;0.63;;;;;;;;;;12538913;28;20049;-73
2022/09/02 06:47:38;;;;;;;2.42;1.58;;;;;;;;;;12541157;28;20048;-74
2022/09/02 06:53:40;;;;;;;1.20;1.02;;;;;;;;;;12540462;28;20385;-74
2022/09/02 06:59:42;;;;;;;;;;;;;;;;;;12541771;28;20379;-74
2022/09/02 07:05:44;;;;;;;2.08;0.95;;;;;;;;;;12557159;28;19914;-74
2022/09/02 07:11:47;;;;;;;1.50;1.15;;;;;;;;;;12545202;28;20032;-73
2022/09/02 07:17:50;;;;;;;1.60;1.10;;;;;;;;;;12531579;28;20029;-74
2022/09/02 07:24:00;;;;;;;1.25;1.10;;;;;;;;;;12546932;28;20048;-74
2022/09/02 07:30:05;;;;;;;0.98;0.90;;;;;;;;;;12544620;28;20067;-74
2022/09/02 07:36:09;;;;;;;1.27;1.10;;;;;;;;;;12553872;28;20040;-73
2022/09/02 07:42:12;;;;;;;1.17;1.08;;;;;;;;;;12544479;28;20033;-74
2022/09/02 07:48:16;;;;;;;1.08;1.00;;;;;;;;;;12549393;28;20032;-74
2022/09/02 07:54:21;;;;;;;1.25;0.80;;;;;;;;;;12535058;28;20039;-74
2022/09/02 08:00:26;;;;;;;0.68;0.68;;;;;;;;;;12554491;28;20099;-74
2022/09/02 08:06:30;;;;;;;1.05;0.73;;;;;;;;;;12570207;28;20020;-74
2022/09/02 08:12:35;;;;;;;0.90;0.90;;;;;;;;;;12557239;28;20044;-75
2022/09/02 08:18:37;;;;;;;0.55;0.55;;;;;;;;;;12549826;28;20395;-75
2022/09/02 08:24:38;;;;;;;1.50;0.80;;;;;;;;;;12580979;28;20036;-75
2022/09/02 08:30:40;;;;;;;1.63;0.80;;;;;;;;;;12571378;28;20049;-74
2022/09/02 08:36:42;;;;;;;;;;;;;;;;;;12577802;28;20025;-75
2022/09/02 08:42:44;;;;;;;1.20;0.80;;;;;;;;;;12576608;28;20368;-74
2022/09/02 08:48:54;;;;;;;1.90;0.80;;;;;;;;;;12563725;28;20057;-75
2022/09/02 08:54:56;;;;;;;1.15;0.70;;;;;;;;;;12547289;28;20028;-75
2022/09/02 09:00:59;;;;;;;0.98;0.88;;;;;;;;;;12557180;28;20430;-75
2022/09/02 09:07:17;;;;;;;0.63;0.63;;;;;;;;;;12564544;28;20149;-74
2022/09/02 09:13:37;;;;;;;0.82;0.80;;;;;;;;;;12570952;28;20025;-75
2022/09/02 09:19:42;;;;;;;1.05;0.75;;;;;;;;;;12555741;28;20485;-76
2022/09/02 09:25:45;;;;;;;1.73;1.10;;;;;;;;;;12553521;28;20035;-75
2022/09/02 09:31:56;;;;;;;0.85;0.80;;;;;;;;;;12587992;28;20052;-75
2022/09/02 09:37:58;;;;;;;2.40;0.70;;;;;;;;;;12572442;28;20036;-75
2022/09/02 09:43:59;;;;;;;;;;;;;;;;;;12579017;28;20047;-75
2022/09/02 09:50:10;;;;;;;0.90;0.60;;;;;;;;;;12582035;28;19908;-74
2022/09/02 09:56:15;;;;;;;1.20;0.50;;;;;;;;;;12554241;28;20025;-75
2022/09/02 10:02:22;;;;;;;2.17;0.80;;;;;;;;;;12575172;28;20547;-74
2022/09/02 10:08:26;;;;;;;1.50;0.65;;;;;;;;;;12554594;28;20033;-74
2022/09/02 10:14:32;;;;;;;0.85;0.60;;;;;;;;;;12499748;28;20021;-75
2022/09/02 10:20:49;;;;;;;0.75;0.55;;;;;;;;;;12501300;28;20049;-75
2022/09/02 10:26:53;;;;;;;0.60;0.60;;;;;;;;;;12504161;28;20033;-75
2022/09/02 10:32:58;;;;;;;0.60;0.60;;;;;;;;;;12511070;28;20439;-75
2022/09/02 10:39:16;;;;;;;1.83;0.52;;;;;;;;;;12524027;28;20513;-75
2022/09/02 10:45:23;;;;;;;0.68;0.60;;;;;;;;;;12481674;28;20037;-75
2022/09/02 10:51:35;;;;;;;1.40;0.70;;;;;;;;;;12500035;28;20032;-75
2022/09/02 10:57:56;;;;;;;1.77;0.80;;;;;;;;;;12525027;28;20041;-74
2022/09/02 11:04:09;;;;;;;0.95;0.75;;;;;;;;;;12482256;28;20044;-74
2022/09/02 11:10:15;;;;;;;0.80;0.60;;;;;;;;;;12473788;28;20056;-75
2022/09/02 11:16:20;;;;;;;1.00;0.70;;;;;;;;;;12458241;28;20391;-75
2022/09/02 11:22:38;;;;;;;0.68;0.68;;;;;;;;;;12458349;28;20049;-75
2022/09/02 11:28:43;;;;;;;0.70;0.70;;;;;;;;;;12474660;28;20056;-75
2022/09/02 11:34:49;;;;;;;0.98;0.47;;;;;;;;;;12474507;28;20044;-75
2022/09/02 11:41:01;;;;;;;0.70;0.70;;;;;;;;;;12474246;28;20041;-75
2022/09/02 11:47:20;;;;;;;0.60;0.60;;;;;;;;;;12492296;28;20046;-73
2022/09/02 11:53:30;;;;;;;0.95;0.90;;;;;;;;;;12477493;28;20280;-74
2022/09/02 11:59:51;;;;;;;0.70;0.60;;;;;;;;;;12494354;28;20044;-75
2022/09/02 12:06:06;;;;;;;1.20;0.57;;;;;;;;;;12477333;28;20052;-74
2022/09/02 12:12:09;;;;;;;0.82;0.63;;;;;;;;;;12494091;28;20235;-75
2022/09/02 12:18:12;;;;;;;0.60;0.60;;;;;;;;;;12494602;28;20208;-74
2022/09/02 12:24:19;;;;;;;0.68;0.68;;;;;;;;;;12494793;28;20504;-75
2022/09/02 12:30:40;;;;;;;0.57;0.57;;;;;;;;;;12486292;28;20038;-74
2022/09/02 12:36:46;;;;;;;0.60;0.53;;;;;;;;;;12485783;28;20072;-73
2022/09/02 12:42:49;;;;;;;0.68;0.60;;;;;;;;;;12504342;28;20502;-73
2022/09/02 12:49:12;;;;;;;0.63;0.43;;;;;;;;;;12502870;28;20061;-73
2022/09/02 12:55:14;;;;;;;0.60;0.60;;;;;;;;;;12502738;28;20033;-73
2022/09/02 13:01:28;;;;;;;0.80;0.80;;;;;;;;;;12484414;28;20509;-73
2022/09/02 13:07:29;;;;;;;0.63;0.50;;;;;;;;;;12484839;28;20037;-74
2022/09/02 13:13:40;;;;;;;1.08;0.70;;;;;;;;;;12501517;28;20049;-73
2022/09/02 13:19:44;;;;;;;0.73;0.70;;;;;;;;;;12501310;28;20399;-73
2022/09/02 13:25:59;;;;;;;1.02;0.70;;;;;;;;;;12500987;28;20049;-73
2022/09/02 13:32:10;;;;;;;0.40;0.40;;;;;;;;;;12500460;28;20029;-73
2022/09/02 13:38:13;;;;;;;0.50;0.50;;;;;;;;;;12498848;28;20030;-73
2022/09/02 13:44:21;;;;;;;0.60;0.60;;;;;;;;;;12482537;28;20479;-72
2022/09/02 13:50:24;;;;;;;0.60;0.60;;;;;;;;;;12466023;28;20396;-73
2022/09/02 13:56:29;;;;;;;1.33;0.50;;;;;;;;;;12482177;28;20033;-72
2022/09/02 14:02:32;;;;;;;0.60;0.40;;;;;;;;;;12500470;28;20048;-74
2022/09/02 14:08:34;;;;;;;0.60;0.40;;;;;;;;;;12498973;28;20060;-73
2022/09/02 14:14:36;;;;;;;0.57;0.40;;;;;;;;;;12499025;28;20056;-73
2022/09/02 14:20:40;;;;;;;1.10;0.52;;;;;;;;;;12498534;28;20044;-74
2022/09/02 14:26:42;;;;;;;2.40;0.50;;;;;;;;;;12480725;28;20040;-74
2022/09/02 14:32:44;;;;;;;2.47;0.80;;;;;;;;;;12463969;28;20029;-74
2022/09/02 14:38:46;;;;;;;0.50;0.50;;;;;;;;;;12480116;28;20060;-73
2022/09/02 14:44:48;;;;;;;0.40;0.40;;;;;;;;;;12497432;28;20052;-73
2022/09/02 14:50:57;;;;;;;1.83;0.68;;;;;;;;;;12496915;28;20391;-74
2022/09/02 14:56:59;;;;;;;0.40;0.40;;;;;;;;;;12479520;28;20037;-73
2022/09/02 15:03:01;;;;;;;0.75;0.63;;;;;;;;;;12496466;28;20041;-73
2022/09/02 15:09:03;;;;;;;1.63;0.80;;;;;;;;;;12496163;28;20041;-74
2022/09/02 15:15:05;;;;;;;0.52;0.52;;;;;;;;;;12495902;28;20038;-73
2022/09/02 15:21:08;;;;;;;0.47;0.47;;;;;;;;;;12495966;28;20395;-72
2022/09/02 15:27:10;;;;;;;0.50;0.50;;;;;;;;;;12462359;28;20048;-73
2022/09/02 15:33:11;;;;;;;1.40;0.70;;;;;;;;;;12495885;28;20036;-73
2022/09/02 15:39:13;;;;;;;0.40;0.40;;;;;;;;;;12495401;28;20040;-73
2022/09/02 15:45:15;;;;;;;0.60;0.60;;;;;;;;;;12477000;28;20052;-73
2022/09/02 15:51:18;;;;;;;0.95;0.70;;;;;;;;;;12477075;28;20037;-73
2022/09/02 15:57:20;;;;;;;0.50;0.45;;;;;;;;;;12494456;28;20038;-73
2022/09/02 16:03:22;;;;;;;0.60;0.50;;;;;;;;;;12493631;28;20404;-73
2022/09/02 16:09:24;;;;;;;0.30;0.30;;;;;;;;;;12493911;28;20518;-73
2022/09/02 16:15:26;;;;;;;0.55;0.45;;;;;;;;;;12476577;28;20038;-73
2022/09/02 16:21:28;;;;;;;0.70;0.43;;;;;;;;;;12460262;28;20033;-73
2022/09/02 16:33:57;;;;;;;0.43;0.43;;;;;;;;;;12493849;28;20045;-74
2022/09/02 16:39:59;;;;;;;0.60;0.60;;;;;;;;;;12476500;28;20041;-73
2022/09/02 16:46:01;;;;;;;0.75;0.47;;;;;;;;;;12493336;28;20042;-74
2022/09/02 16:52:03;;;;;;;0.40;0.38;;;;;;;;;;12475657;28;20033;-73
2022/09/02 16:58:05;;;;;;;0.82;0.30;;;;;;;;;;12493553;28;20033;-74
2022/09/02 17:04:07;;;;;;;1.85;0.40;;;;;;;;;;12492915;28;20045;-75
2022/09/02 17:10:09;;;;;;;0.30;0.30;;;;;;;;;;12493496;28;20042;-74
2022/09/02 17:16:11;;;;;;;0.30;0.30;;;;;;;;;;12483908;28;20037;-74
2022/09/02 17:22:13;;;;;;;0.50;0.50;;;;;;;;;;12501037;28;20049;-73
2022/09/02 17:28:15;;;;;;;0.47;0.43;;;;;;;;;;12483294;28;20033;-74
2022/09/02 17:34:17;;;;;;;1.88;0.60;;;;;;;;;;12500719;28;20039;-73
2022/09/02 17:46:39;;;;;;;0.88;0.65;;;;;;;;;;12500220;28;20403;-73
2022/09/02 17:52:44;;;;;;;0.50;0.50;;;;;;;;;;12500781;28;20033;-73
2022/09/02 17:58:52;;;;;;;1.95;0.68;;;;;;;;;;12465852;28;20039;-74
2022/09/02 18:04:57;;;;;;;0.52;0.50;;;;;;;;;;12500211;28;20056;-74
2022/09/02 18:11:04;;;;;;;0.45;0.45;;;;;;;;;;12481800;28;20050;-73
2022/09/02 18:17:18;;;;;;;1.00;0.60;;;;;;;;;;12481613;28;20041;-74
2022/09/02 18:23:29;;;;;;;0.50;0.50;;;;;;;;;;12497606;28;20037;-74
2022/09/02 18:29:51;;;;;;;1.30;0.50;;;;;;;;;;12480713;28;20040;-73
2022/09/02 18:35:59;;;;;;;0.75;0.50;;;;;;;;;;12481130;28;20388;-75
2022/09/02 18:42:13;;;;;;;0.95;0.50;;;;;;;;;;12481232;28;20040;-73
2022/09/02 18:48:17;;;;;;;0.50;0.50;;;;;;;;;;12479778;28;20041;-74
2022/09/02 18:54:43;;;;;;;0.57;0.50;;;;;;;;;;12497888;28;20403;-74
2022/09/02 19:00:49;;;;;;;0.65;0.50;;;;;;;;;;12460391;28;20050;-74
2022/09/02 19:08:28;;;;;;;1.05;0.70;;;;;;;;;;12479131;28;20037;-75
2022/09/02 19:13:14;;;;;;;1.13;0.70;;;;;;;;;;12478836;28;20049;-74
2022/09/02 19:19:17;;;;;;;0.73;0.60;;;;;;;;;;12495923;28;20040;-74
2022/09/02 19:25:25;;;;;;;2.42;1.10;;;;;;;;;;12478113;28;20041;-74
2022/09/02 19:31:31;;;;;;;1.52;1.42;;;;;;;;;;12495577;28;20033;-75
2022/09/02 19:37:33;;;;;;;1.95;1.38;;;;;;;;;;12495287;28;20025;-74
2022/09/02 19:43:35;;;;;;;2.65;1.40;;;;;;;;;;12496225;28;20044;-74
2022/09/02 19:49:37;;;;;;;1.23;0.90;;;;;;;;;;12495399;28;20427;-74
2022/09/02 19:55:39;;;;;;;1.88;1.25;;;;;;;;;;12461042;28;20033;-74
2022/09/02 20:01:41;;;;;;;0.80;0.80;;;;;;;;;;12494917;28;20048;-74
2022/09/02 20:07:43;;;;;;;2.65;1.08;;;;;;;;;;12476895;28;20034;-75
2022/09/02 20:13:45;;;;;;;0.93;0.93;;;;;;;;;;12460510;28;20054;-74
2022/09/02 20:19:46;;;;;;;;;;;;;;;;;;12494374;28;20037;-74
2022/09/02 20:25:54;;;;;;;1.50;1.40;;;;;;;;;;12460073;28;19917;-75
2022/09/02 20:32:00;;;;;;;1.30;1.20;;;;;;;;;;12476466;28;20037;-73
2022/09/02 20:38:14;;;;;;;1.30;1.20;;;;;;;;;;12459628;28;20041;-74
2022/09/02 20:44:19;;;;;;;1.50;1.38;;;;;;;;;;12475878;28;20053;-74
2022/09/02 20:50:23;;;;;;;0.95;0.95;;;;;;;;;;12504273;28;20029;-73
2022/09/02 20:56:48;;;;;;;1.10;1.00;;;;;;;;;;12486295;28;20040;-74
2022/09/02 21:03:04;;;;;;;2.40;1.60;;;;;;;;;;12485159;28;20045;-75
2022/09/02 21:09:05;;;;;;;2.47;2.22;;;;;;;;;;12501824;28;20053;-74
2022/09/02 21:15:26;;;;;;;4.30;2.78;;;;;;;;;;12484382;28;20033;-74
2022/09/02 21:21:54;;;;;;;3.90;3.03;;;;;;;;;;12467632;28;20045;-73
2022/09/02 21:28:05;;;;;;;3.80;2.80;;;;;;;;;;12497917;28;20052;-74
2022/09/02 21:34:15;;;;;;;6.13;3.72;;;;;;;;;;12467319;28;20029;-75
2022/09/02 21:40:18;;;;;;;3.08;2.70;;;;;;;;;;12501451;28;20040;-74
2022/09/02 21:46:22;;;;;;;3.00;2.70;;;;;;;;;;12500264;28;20041;-74
2022/09/02 21:52:39;;;;;;;3.00;2.60;;;;;;;;;;12482837;28;20487;-74
2022/09/02 21:59:04;;;;;;;2.72;2.53;;;;;;;;;;12498973;28;20364;-74
2022/09/02 22:05:08;;;;;;;2.78;2.00;;;;;;;;;;12491773;28;20065;-74
2022/09/02 22:11:16;;;;;;;3.22;2.25;;;;;;;;;;12498902;28;20053;-74
2022/09/02 22:17:44;;;;;;;2.13;1.92;;;;;;;;;;12481300;28;20514;-74
2022/09/02 22:23:46;;;;;;;2.15;1.95;;;;;;;;;;12477688;28;20058;-74
2022/09/02 22:30:03;;;;;;;2.38;2.05;;;;;;;;;;12498404;28;20395;-74
2022/09/02 22:36:13;;;;;;;1.70;1.60;;;;;;;;;;12480539;28;20404;-74
2022/09/02 22:42:16;;;;;;;1.77;1.67;;;;;;;;;;12499231;28;20053;-74
2022/09/02 22:54:38;;;;;;;1.50;1.50;;;;;;;;;;12497271;28;20037;-73
2022/09/02 23:00:46;;;;;;;1.83;1.73;;;;;;;;;;12497403;28;20041;-74
2022/09/02 23:06:48;;;;;;;2.25;1.73;;;;;;;;;;12462995;28;20037;-74
2022/09/02 23:12:57;;;;;;;1.75;1.60;;;;;;;;;;12462444;28;20060;-74
2022/09/02 23:18:59;;;;;;;1.75;1.50;;;;;;;;;;12496642;28;20038;-74
2022/09/02 23:25:15;;;;;;;1.95;1.85;;;;;;;;;;12495942;28;20045;-74
2022/09/02 23:31:18;;;;;;;1.65;1.55;;;;;;;;;;12480403;28;20040;-74
2022/09/02 23:37:23;;;;;;;2.05;1.63;;;;;;;;;;12478596;28;20391;-74
2022/09/02 23:43:26;;;;;;;2.00;1.90;;;;;;;;;;12497064;28;20037;-73
2022/09/02 23:49:46;;;;;;;1.80;1.70;;;;;;;;;;12477158;28;20056;-73
2022/09/02 23:55:56;;;;;;;2.03;1.90;;;;;;;;;;12460739;28;20046;-73
